Lacanau — FNKK — position and weather

sailwx.info

Track history (hours):
 
Tides and Currents Weather Stations Pressure Air Temp Water Temp Dewpoint Dewpoint Depression Visibility Wind Speed Wind Dir Waves Ship Positions

Lacanau

Last reported at 2017-Sep-18 19:43 UTC. Time now 2017-Sep-20 18:21 UTC.
Position N 13°48' W 061°17'.

Length 119 m; draft 5.8 m.

MMSI: 228330800.

Date/timePositionNaut miles runAvg speedWind from/ knotsBaromVisibWave heightAir tempDewpointWater temp
2017-Sep-18 19:43N 13°48' W 061°17'14 3.8
2017-Sep-18 16:01N 13°59' W 061°08'0 7.5
2017-Sep-18 15:59N 13°59' W 061°08'510.2
2017-Sep-18 15:26N 14°05' W 061°06'613.5
2017-Sep-18 15:00N 14°10' W 061°04'510.4
2017-Sep-18 14:30N 14°15' W 061°04'  
2017-Sep-15 20:37N 14°34' W 061°06'0 0.0
2017-Sep-15 18:46N 14°34' W 061°06'0 0.0
2017-Sep-15 14:40N 14°34' W 061°06'0 0.0
2017-Sep-15 06:55N 14°34' W 061°06'0 0.0
2017-Sep-15 06:22N 14°34' W 061°06'0 0.0
2017-Sep-15 05:58N 14°34' W 061°06'0 0.0
2017-Sep-15 05:16N 14°34' W 061°06'0 0.0
2017-Sep-15 03:37N 14°34' W 061°06'0 0.0
2017-Sep-15 03:13N 14°34' W 061°06'0 0.0
2017-Sep-15 02:58N 14°34' W 061°06'0 0.0
2017-Sep-15 02:28N 14°34' W 061°06'0 0.0
2017-Sep-15 01:58N 14°34' W 061°06'0 0.0
2017-Sep-15 01:28N 14°34' W 061°06'0 0.0
2017-Sep-15 00:55N 14°34' W 061°06'0 0.1
2017-Sep-15 00:28N 14°34' W 061°06'0 0.0
2017-Sep-14 23:55N 14°34' W 061°06'0 0.0
2017-Sep-14 23:28N 14°34' W 061°06'0 0.0
2017-Sep-14 21:28N 14°34' W 061°06'0 0.0
2017-Sep-14 17:25N 14°34' W 061°06'0 0.1
2017-Sep-14 16:52N 14°34' W 061°06'0 0.0
2017-Sep-14 16:25N 14°34' W 061°06'0 0.0
2017-Sep-14 15:52N 14°34' W 061°06'0 0.1
2017-Sep-14 14:22N 14°34' W 061°06'0 0.0
2017-Sep-14 13:43N 14°34' W 061°06'0 0.1
2017-Sep-14 13:28N 14°34' W 061°06'0 0.2
2017-Sep-14 13:00N 14°34' W 061°06'3 6.7
2017-Sep-14 12:30N 14°35' W 061°09'612.0
2017-Sep-14 12:00N 14°37' W 061°15'611.4
2017-Sep-14 11:30N 14°40' W 061°20'5911.8
2017-Sep-14 06:32N 15°37' W 061°35'212.8
2017-Sep-14 06:21N 15°39' W 061°34'2312.5
2017-Sep-14 04:29N 16°01' W 061°27'612.2
2017-Sep-14 03:59N 16°06' W 061°29'612.0
2017-Sep-14 03:30N 16°12' W 061°31'3 5.6
2017-Sep-14 03:00N 16°14' W 061°33'0 0.0
2017-Sep-12 14:06N 16°14' W 061°33'0 0.2
2017-Sep-12 14:01N 16°14' W 061°33'2 4.3
2017-Sep-12 13:30N 16°12' W 061°32'510.0
2017-Sep-12 12:59N 16°07' W 061°30'  
2017-Sep-09 00:14N 15°51' W 062°44'513.6
2017-Sep-08 23:54N 15°48' W 062°40'  
Track history (hours):
 
Tides and Currents Weather Stations Pressure Air Temp Water Temp Dewpoint Dewpoint Depression Visibility Wind Speed Wind Dir Waves Ship Positions

Lacanau

Last reported at 2017-Sep-18 19:43 UTC. Time now 2017-Sep-20 18:21 UTC.
Position N 13°48' W 061°17'.

Length 119 m; draft 5.8 m.

MMSI: 228330800.

Date/timePositionNaut miles runAvg speedWind from/ knotsBaromVisibWave heightAir tempDewpointWater temp
2017-Sep-18 19:43N 13°48' W 061°17'14 3.8
2017-Sep-18 16:01N 13°59' W 061°08'0 7.5
2017-Sep-18 15:59N 13°59' W 061°08'510.2
2017-Sep-18 15:26N 14°05' W 061°06'613.5
2017-Sep-18 15:00N 14°10' W 061°04'510.4
2017-Sep-18 14:30N 14°15' W 061°04'  
2017-Sep-15 20:37N 14°34' W 061°06'0 0.0
2017-Sep-15 18:46N 14°34' W 061°06'0 0.0
2017-Sep-15 14:40N 14°34' W 061°06'0 0.0
2017-Sep-15 06:55N 14°34' W 061°06'0 0.0
2017-Sep-15 06:22N 14°34' W 061°06'0 0.0
2017-Sep-15 05:58N 14°34' W 061°06'0 0.0
2017-Sep-15 05:16N 14°34' W 061°06'0 0.0
2017-Sep-15 03:37N 14°34' W 061°06'0 0.0
2017-Sep-15 03:13N 14°34' W 061°06'0 0.0
2017-Sep-15 02:58N 14°34' W 061°06'0 0.0
2017-Sep-15 02:28N 14°34' W 061°06'0 0.0
2017-Sep-15 01:58N 14°34' W 061°06'0 0.0
2017-Sep-15 01:28N 14°34' W 061°06'0 0.0
2017-Sep-15 00:55N 14°34' W 061°06'0 0.1
2017-Sep-15 00:28N 14°34' W 061°06'0 0.0
2017-Sep-14 23:55N 14°34' W 061°06'0 0.0
2017-Sep-14 23:28N 14°34' W 061°06'0 0.0
2017-Sep-14 21:28N 14°34' W 061°06'0 0.0
2017-Sep-14 17:25N 14°34' W 061°06'0 0.1
2017-Sep-14 16:52N 14°34' W 061°06'0 0.0
2017-Sep-14 16:25N 14°34' W 061°06'0 0.0
2017-Sep-14 15:52N 14°34' W 061°06'0 0.1
2017-Sep-14 14:22N 14°34' W 061°06'0 0.0
2017-Sep-14 13:43N 14°34' W 061°06'0 0.1
2017-Sep-14 13:28N 14°34' W 061°06'0 0.2
2017-Sep-14 13:00N 14°34' W 061°06'3 6.7
2017-Sep-14 12:30N 14°35' W 061°09'612.0
2017-Sep-14 12:00N 14°37' W 061°15'611.4
2017-Sep-14 11:30N 14°40' W 061°20'5911.8
2017-Sep-14 06:32N 15°37' W 061°35'212.8
2017-Sep-14 06:21N 15°39' W 061°34'2312.5
2017-Sep-14 04:29N 16°01' W 061°27'612.2
2017-Sep-14 03:59N 16°06' W 061°29'612.0
2017-Sep-14 03:30N 16°12' W 061°31'3 5.6
2017-Sep-14 03:00N 16°14' W 061°33'0 0.0
2017-Sep-12 14:06N 16°14' W 061°33'0 0.2
2017-Sep-12 14:01N 16°14' W 061°33'2 4.3
2017-Sep-12 13:30N 16°12' W 061°32'510.0
2017-Sep-12 12:59N 16°07' W 061°30'  
2017-Sep-09 00:14N 15°51' W 062°44'513.6
2017-Sep-08 23:54N 15°48' W 062°40'  

Dump ship's entire track history